createdAt,value
2022-11-05T00:01:11.057Z,97.2
2022-11-05T00:02:10.256Z,97.08
2022-11-05T00:03:10.637Z,97.13
2022-11-05T00:04:10.665Z,97.02
2022-11-05T00:05:14.167Z,97.1
2022-11-05T00:06:11.719Z,97.38
2022-11-05T00:08:15.508Z,97.07
2022-11-05T00:09:16.130Z,97.14
2022-11-05T00:11:18.563Z,97.09
2022-11-05T00:12:17.910Z,97.06
2022-11-05T00:13:18.516Z,97
2022-11-05T00:15:19.146Z,96.85
2022-11-05T00:16:19.254Z,96.78
2022-11-05T00:17:19.467Z,96.8
2022-11-05T00:18:20.103Z,96.97
2022-11-05T00:19:20.318Z,97.06
2022-11-05T00:20:20.715Z,96.75
2022-11-05T00:21:21.039Z,96.82
2022-11-05T00:22:21.345Z,97.1
2022-11-05T00:23:21.671Z,96.81
2022-11-05T00:24:24.371Z,96.73
2022-11-05T00:25:22.496Z,96.67
2022-11-05T00:26:22.494Z,96.83
2022-11-05T00:28:23.324Z,97.09
2022-11-05T00:29:23.646Z,97.04
2022-11-05T00:30:26.202Z,96.73
2022-11-05T00:31:24.056Z,96.58
2022-11-05T00:32:24.485Z,96.19
2022-11-05T00:33:25.012Z,96.43
2022-11-05T00:34:25.101Z,96.85
2022-11-05T00:35:25.541Z,96.92
2022-11-05T00:36:25.957Z,96.99
2022-11-05T00:37:28.934Z,97.06
2022-11-05T00:38:26.577Z,96.95
2022-11-05T00:39:26.892Z,97.1
2022-11-05T00:40:27.265Z,96.96
2022-11-05T00:41:27.504Z,96.62
2022-11-05T00:42:28.043Z,96.5
2022-11-05T00:43:28.164Z,96.56
2022-11-05T00:44:28.457Z,96.69
2022-11-05T00:45:30.532Z,96.72
2022-11-05T00:46:29.286Z,96.82
2022-11-05T00:47:30.824Z,96.82
2022-11-05T00:48:29.915Z,97.04
2022-11-05T00:49:30.227Z,96.99
2022-11-05T00:50:31.043Z,96.98
2022-11-05T00:51:30.957Z,96.94
2022-11-05T00:52:31.063Z,96.75
2022-11-05T00:53:31.683Z,96.59
2022-11-05T00:54:31.903Z,96.83
2022-11-05T00:56:37.341Z,97.11
2022-11-05T00:57:37.548Z,97.12
2022-11-05T00:59:38.387Z,96.76
2022-11-05T01:00:40.943Z,96.77
2022-11-05T01:01:39.190Z,96.93
2022-11-05T01:02:39.351Z,97.19
2022-11-05T01:03:40.253Z,97.19
2022-11-05T01:04:39.954Z,97.04
2022-11-05T01:05:52.654Z,96.98
2022-11-05T01:06:45.286Z,97.21
2022-11-05T01:07:45.394Z,97.06
2022-11-05T01:08:46.527Z,96.9
2022-11-05T01:09:46.125Z,96.85
2022-11-05T01:10:49.094Z,96.88
2022-11-05T01:11:46.969Z,96.65
2022-11-05T01:12:47.167Z,96.17
2022-11-05T01:13:47.593Z,96.07
2022-11-05T01:14:47.916Z,96.29
2022-11-05T01:15:48.421Z,96.12
2022-11-05T01:16:48.419Z,96.45
2022-11-05T01:17:48.955Z,96.46
2022-11-05T01:18:49.254Z,96.06
2022-11-05T01:19:49.465Z,95.94
2022-11-05T01:20:50.206Z,95.9
2022-11-05T01:21:49.994Z,95.99
2022-11-05T01:22:50.364Z,95.79
2022-11-05T01:23:50.922Z,96.04
2022-11-05T01:24:51.036Z,96.09
2022-11-05T01:25:51.556Z,96.11
2022-11-05T01:26:51.664Z,95.8
2022-11-05T01:27:52.279Z,95.92
2022-11-05T01:28:53.657Z,95.81
2022-11-05T01:29:52.816Z,95.88
2022-11-05T01:30:56.918Z,96.28
2022-11-05T01:31:54.580Z,96.24
2022-11-05T01:32:54.984Z,96.23
2022-11-05T01:33:55.188Z,96.28
2022-11-05T01:34:55.413Z,96.17
2022-11-05T01:35:55.826Z,96.11
2022-11-05T01:36:56.243Z,95.99
2022-11-05T01:37:56.353Z,96.08
2022-11-05T01:38:56.665Z,96.11
2022-11-05T01:39:57.193Z,96.18
2022-11-05T01:40:57.386Z,96.12
2022-11-05T01:41:57.910Z,96.15
2022-11-05T01:42:58.017Z,96.37
2022-11-05T01:43:59.677Z,96.15
2022-11-05T01:46:01.945Z,95.75
2022-11-05T01:47:02.350Z,95.75
2022-11-05T01:52:11.187Z,95.65
2022-11-05T01:57:21.758Z,95.39
2022-11-05T01:58:24.535Z,95.36
2022-11-05T02:00:26.116Z,95.33
2022-11-05T02:01:26.944Z,95.26
2022-11-05T02:02:27.779Z,95.12
2022-11-05T02:03:28.564Z,95.23
2022-11-05T02:05:32.250Z,95.45
2022-11-05T02:06:35.136Z,95.52
2022-11-05T02:07:34.021Z,95.51
2022-11-05T02:10:40.606Z,95.71
2022-11-05T02:11:40.499Z,95.81
2022-11-05T02:12:43.989Z,95.88
2022-11-05T02:13:41.521Z,95.91
2022-11-05T02:14:41.853Z,95.81
2022-11-05T02:53:17.125Z,96.2
2022-11-05T02:55:26.557Z,95.93
2022-11-05T02:56:28.186Z,95.84
2022-11-05T02:57:22.404Z,95.54
2022-11-05T02:58:21.873Z,95.58
2022-11-05T02:59:21.574Z,95.44
2022-11-05T03:01:25.777Z,95.62
2022-11-05T03:02:26.202Z,95.55
2022-11-05T03:04:30.914Z,95.54
2022-11-05T03:19:20.561Z,92.67
2022-11-05T03:25:29.302Z,91.67
2022-11-05T03:30:39.382Z,91.25
2022-11-05T03:31:39.911Z,91.47
2022-11-05T03:33:43.207Z,91.34
2022-11-05T03:38:56.213Z,90.75
2022-11-05T03:42:01.151Z,90.94
2022-11-05T03:47:15.526Z,90.83
2022-11-05T03:48:16.689Z,90.85
2022-11-05T03:49:21.502Z,91.19
2022-11-05T03:54:28.373Z,90.84
2022-11-05T03:57:36.384Z,90.51
2022-11-05T03:58:35.873Z,90.55
2022-11-05T03:59:41.603Z,90.89
2022-11-05T04:00:39.475Z,90.87
2022-11-05T04:01:41.834Z,91.04
2022-11-05T04:02:40.068Z,90.88
2022-11-05T04:03:40.203Z,90.76
2022-11-05T04:04:41.401Z,90.69
2022-11-05T04:05:41.242Z,90.42
2022-11-05T04:06:41.142Z,90.64
2022-11-05T04:07:43.097Z,90.58
2022-11-05T04:08:41.762Z,90.49
2022-11-05T04:09:42.086Z,90.41
2022-11-05T04:10:42.292Z,90.53
2022-11-05T04:11:42.712Z,90.5
2022-11-05T04:12:43.035Z,90.54
2022-11-05T04:13:43.564Z,90.71
2022-11-05T04:14:43.773Z,90.47
2022-11-05T04:15:43.975Z,90.66
2022-11-05T04:16:44.393Z,90.42
2022-11-05T04:17:44.704Z,90.31
2022-11-05T04:18:45.015Z,90.36
2022-11-05T04:19:45.944Z,90.15
2022-11-05T04:20:45.633Z,90.57
2022-11-05T04:21:45.953Z,90.61
2022-11-05T04:22:46.277Z,90.73
2022-11-05T04:23:46.586Z,90.61
2022-11-05T04:24:46.786Z,90.52
2022-11-05T04:25:47.523Z,90.54
2022-11-05T04:26:47.528Z,90.33
2022-11-05T04:27:48.964Z,90.7
2022-11-05T04:28:48.044Z,90.79
2022-11-05T04:29:48.413Z,90.87
2022-11-05T04:30:48.771Z,90.78
2022-11-05T04:31:49.340Z,90.83
2022-11-05T04:33:53.204Z,90.56
2022-11-05T04:34:53.829Z,90.72
2022-11-05T04:35:54.263Z,90.81
2022-11-05T04:36:54.374Z,90.46
2022-11-05T04:37:54.765Z,90.2
2022-11-05T04:38:55.075Z,89.96
2022-11-05T04:39:55.283Z,90.08
2022-11-05T04:41:59.606Z,89.98
2022-11-05T04:43:01.453Z,89.89
2022-11-05T04:44:00.234Z,90.01
2022-11-05T04:45:00.755Z,89.91
2022-11-05T04:46:00.872Z,90.14
2022-11-05T04:47:01.386Z,90.03
2022-11-05T04:48:04.973Z,90.02
2022-11-05T04:49:02.506Z,90.06
2022-11-05T04:50:03.351Z,90.37
2022-11-05T04:51:03.353Z,90.7
2022-11-05T04:52:03.554Z,90.46
2022-11-05T04:53:03.879Z,90.64
2022-11-05T04:54:04.494Z,90.38
2022-11-05T04:55:05.114Z,90.59
2022-11-05T04:56:12.703Z,90.59
2022-11-05T04:57:05.337Z,90.53
2022-11-05T04:58:05.949Z,90.51
2022-11-05T04:59:06.057Z,90.7
2022-11-05T05:00:08.016Z,90.59
2022-11-05T05:01:06.819Z,90.31
2022-11-05T05:02:07.373Z,90.61
2022-11-05T05:03:07.217Z,90.62
2022-11-05T05:04:07.441Z,90.66
2022-11-05T05:05:08.464Z,90.94
2022-11-05T05:06:08.778Z,90.55
2022-11-05T05:07:08.568Z,90.5
2022-11-05T05:08:09.635Z,90.53
2022-11-05T05:09:09.205Z,90.36
2022-11-05T05:10:10.856Z,90.25
2022-11-05T05:11:12.904Z,90.25
2022-11-05T05:12:10.562Z,90.57
2022-11-05T05:13:12.481Z,90.47
2022-11-05T05:14:11.394Z,90.62
2022-11-05T05:15:11.923Z,90.72
2022-11-05T05:16:19.493Z,90.47
2022-11-05T05:17:17.753Z,90.69
2022-11-05T05:18:17.547Z,90.75
2022-11-05T05:19:17.965Z,90.8
2022-11-05T05:20:18.892Z,90.78
2022-11-05T05:21:20.444Z,90.63
2022-11-05T05:22:18.717Z,91.02
2022-11-05T05:23:19.320Z,90.96
2022-11-05T05:24:20.864Z,90.83
2022-11-05T05:25:19.857Z,91.02
2022-11-05T05:26:19.982Z,91.28
2022-11-05T05:27:20.897Z,90.74
2022-11-05T05:28:20.791Z,91.08
2022-11-05T05:29:21.414Z,91.05
2022-11-05T05:30:21.636Z,90.81
2022-11-05T05:31:22.676Z,90.51
2022-11-05T05:32:22.155Z,90.83
2022-11-05T05:33:22.365Z,90.88
2022-11-05T05:34:22.672Z,90.58
2022-11-05T05:35:23.298Z,90.52
2022-11-05T05:36:24.233Z,90.63
2022-11-05T05:37:23.842Z,90.83
2022-11-05T05:38:24.148Z,90.61
2022-11-05T05:39:24.555Z,90.58
2022-11-05T05:40:24.863Z,90.56
2022-11-05T05:41:25.603Z,90.35
2022-11-05T05:42:25.185Z,89.94
2022-11-05T05:43:29.392Z,90.34
2022-11-05T05:44:27.038Z,90
2022-11-05T05:45:27.256Z,90.32
2022-11-05T05:46:27.562Z,90.38
2022-11-05T05:47:27.986Z,90.39
2022-11-05T05:48:28.095Z,90.45
2022-11-05T05:49:28.504Z,90.17
2022-11-05T05:50:28.937Z,90.24
2022-11-05T05:51:29.252Z,90.17
2022-11-05T05:52:29.664Z,90.22
2022-11-05T05:53:30.074Z,89.95
2022-11-05T05:54:32.832Z,89.89
2022-11-05T05:55:31.719Z,90
2022-11-05T05:56:32.135Z,90.05
2022-11-05T05:57:32.657Z,89.93
2022-11-05T05:58:38.203Z,90.05
2022-11-05T05:59:35.644Z,89.97
2022-11-05T06:00:35.885Z,89.92
2022-11-05T06:01:36.392Z,89.6
2022-11-05T06:02:36.590Z,89.55
2022-11-05T06:03:36.899Z,89.81
2022-11-05T06:04:37.313Z,89.6
2022-11-05T06:05:37.730Z,89.56
2022-11-05T06:06:37.941Z,89.13
2022-11-05T06:07:38.150Z,89.16
2022-11-05T06:08:39.490Z,89.23
2022-11-05T06:09:38.876Z,89.27
2022-11-05T06:10:39.357Z,89.13
2022-11-05T06:11:39.534Z,89.24
2022-11-05T06:12:39.816Z,89.22
2022-11-05T06:13:40.133Z,89.56
2022-11-05T06:14:40.548Z,89.6
2022-11-05T06:15:40.966Z,89.12
2022-11-05T06:16:41.276Z,89.24
2022-11-05T06:17:43.763Z,88.84
2022-11-05T06:18:41.807Z,88.9
2022-11-05T06:19:42.031Z,88.87
2022-11-05T06:20:43.059Z,89.14
2022-11-05T06:21:42.642Z,88.95
2022-11-05T06:22:43.058Z,88.92
2022-11-05T06:23:45.846Z,88.99
2022-11-05T06:24:43.682Z,88.71
2022-11-05T06:25:43.894Z,88.58
2022-11-05T06:26:44.321Z,88.87
2022-11-05T06:27:44.632Z,88.85
2022-11-05T06:28:45.983Z,88.52
2022-11-05T06:29:45.258Z,88.81
2022-11-05T06:30:51.414Z,88.65
2022-11-05T06:31:49.059Z,88.89
2022-11-05T06:32:49.263Z,88.57
2022-11-05T06:33:49.688Z,88.6
2022-11-05T06:34:49.891Z,88.69
2022-11-05T06:35:50.103Z,88.68
2022-11-05T06:36:50.725Z,88.69
2022-11-05T06:37:50.861Z,88.94
2022-11-05T06:38:51.259Z,88.7
2022-11-05T06:39:51.474Z,88.69
2022-11-05T06:40:51.887Z,88.73
2022-11-05T06:42:19.693Z,88.36
2022-11-05T06:42:54.862Z,88.43
2022-11-05T06:43:54.869Z,88.27
2022-11-05T06:44:55.807Z,88.27
2022-11-05T06:45:56.000Z,88.44
2022-11-05T06:46:55.914Z,88.23
2022-11-05T06:47:59.294Z,88.36
2022-11-05T06:48:56.538Z,88.56
2022-11-05T06:49:57.168Z,88.37
2022-11-05T06:50:57.274Z,88.31
2022-11-05T06:51:58.604Z,88.37
2022-11-05T06:52:59.734Z,87.89
2022-11-05T06:53:58.426Z,88.32
2022-11-05T06:54:58.722Z,88.07
2022-11-05T06:56:03.029Z,88.21
2022-11-05T06:57:00.281Z,88.24
2022-11-05T06:58:00.688Z,88.33
2022-11-05T07:01:08.437Z,88.2
2022-11-05T07:02:07.496Z,88.18
2022-11-05T07:03:08.494Z,88.33
2022-11-05T07:04:06.995Z,88.26
2022-11-05T07:05:07.905Z,88.23
2022-11-05T07:06:08.120Z,88.4
2022-11-05T07:07:08.126Z,88
2022-11-05T07:08:08.537Z,88.14
2022-11-05T07:09:08.860Z,88.18
2022-11-05T07:11:11.841Z,87.97
2022-11-05T07:12:12.356Z,88.11
2022-11-05T07:13:12.886Z,87.93
2022-11-05T07:14:12.888Z,87.49
2022-11-05T07:15:13.401Z,87.7
2022-11-05T07:16:13.515Z,88.03
2022-11-05T07:17:13.823Z,87.92
2022-11-05T07:18:14.249Z,87.9
2022-11-05T07:19:14.384Z,87.42
2022-11-05T07:20:14.868Z,87.47
2022-11-05T07:21:15.180Z,88.02
2022-11-05T07:22:15.598Z,87.77
2022-11-05T07:23:16.528Z,87.44
2022-11-05T07:24:16.127Z,87.32
2022-11-05T07:25:16.638Z,87.33
2022-11-05T07:26:16.649Z,87.23
2022-11-05T07:27:17.624Z,87.16
2022-11-05T07:28:17.699Z,87.32
2022-11-05T07:29:17.586Z,87.54
2022-11-05T07:30:18.309Z,87.4
2022-11-05T07:31:18.623Z,87.27
2022-11-05T07:32:18.731Z,87.47
2022-11-05T07:33:18.843Z,87.44
2022-11-05T07:34:19.192Z,87.23
2022-11-05T07:35:19.681Z,87.28
2022-11-05T07:36:20.095Z,87.52
2022-11-05T07:37:20.302Z,87.17
2022-11-05T07:38:20.724Z,87.37
2022-11-05T07:39:21.547Z,87.19
2022-11-05T07:40:23.200Z,87.54
2022-11-05T07:41:21.558Z,87.34
2022-11-05T07:42:21.892Z,87.07
2022-11-05T07:43:22.286Z,87.21
2022-11-05T07:44:22.715Z,87.12
2022-11-05T07:45:23.938Z,87.05
2022-11-05T07:46:23.243Z,87.34
2022-11-05T07:47:23.542Z,87.05
2022-11-05T07:48:23.886Z,87.2
2022-11-05T07:49:24.176Z,87.72
2022-11-05T07:50:26.237Z,87.86
2022-11-05T07:51:25.035Z,87.37
2022-11-05T07:52:25.235Z,87.51
2022-11-05T07:53:25.747Z,87.61
2022-11-05T07:54:25.945Z,87.85
2022-11-05T07:55:26.259Z,87.85
2022-11-05T07:56:26.675Z,87.78
2022-11-05T07:57:27.091Z,88.12
2022-11-05T07:58:27.409Z,88.11
2022-11-05T07:59:27.549Z,87.75
2022-11-05T08:00:28.565Z,87.75
2022-11-05T08:01:28.454Z,88
2022-11-05T08:02:29.124Z,88.01
2022-11-05T08:03:29.037Z,87.58
2022-11-05T08:04:29.215Z,87.53
2022-11-05T08:05:30.831Z,87.56
2022-11-05T08:06:30.029Z,87.37
2022-11-05T08:07:30.341Z,87.33
2022-11-05T08:08:30.445Z,86.92
2022-11-05T08:09:31.163Z,86.86
2022-11-05T08:10:32.605Z,86.64
2022-11-05T08:11:32.009Z,86.63
2022-11-05T08:12:32.521Z,86.38
2022-11-05T08:13:32.624Z,86.66
2022-11-05T08:14:32.637Z,86.62
2022-11-05T08:15:33.790Z,86.62
2022-11-05T08:16:33.062Z,86.66
2022-11-05T08:17:33.376Z,86.54
2022-11-05T08:18:34.001Z,86.5
2022-11-05T08:19:34.156Z,86.23
2022-11-05T08:20:35.648Z,86.3
2022-11-05T08:21:34.932Z,86.48
2022-11-05T08:22:35.054Z,86.69
2022-11-05T08:23:35.374Z,86.66
2022-11-05T08:24:35.767Z,86.94
2022-11-05T08:25:36.299Z,86.7
2022-11-05T08:26:36.505Z,86.63
2022-11-05T08:27:36.927Z,86.26
2022-11-05T08:28:36.943Z,85.92
2022-11-05T08:29:37.454Z,86.41
2022-11-05T08:30:37.766Z,86.6
2022-11-05T08:31:38.169Z,86.89
2022-11-05T08:32:38.390Z,86.74
2022-11-05T08:33:38.796Z,86.69
2022-11-05T08:34:39.016Z,86.25
2022-11-05T08:35:40.262Z,86.06
2022-11-05T08:36:39.644Z,86.27
2022-11-05T08:37:40.051Z,86.14
2022-11-05T08:38:40.395Z,86.32
2022-11-05T08:39:40.795Z,86.52
2022-11-05T08:40:41.929Z,86.24
2022-11-05T08:41:41.322Z,86.45
2022-11-05T08:42:41.729Z,86.46
2022-11-05T08:43:42.055Z,86.36
2022-11-05T08:44:42.465Z,86.06
2022-11-05T08:45:42.674Z,85.97
2022-11-05T08:46:43.287Z,86.52
2022-11-05T08:47:43.397Z,85.95
2022-11-05T08:48:43.715Z,86.28
2022-11-05T08:49:44.031Z,86.43
2022-11-05T08:50:46.388Z,85.69
2022-11-05T08:51:45.368Z,85.99
2022-11-05T08:52:45.070Z,86.25
2022-11-05T08:53:45.286Z,86.55
2022-11-05T08:54:45.700Z,86.13
2022-11-05T08:55:45.912Z,85.89
2022-11-05T08:56:46.337Z,85.31
2022-11-05T08:57:47.972Z,85.1
2022-11-05T08:58:47.155Z,85.06
2022-11-05T08:59:47.263Z,84.82
2022-11-05T09:00:49.619Z,84.78
2022-11-05T09:01:48.132Z,85.5
2022-11-05T09:02:48.418Z,85.63
2022-11-05T09:03:51.484Z,85.77
2022-11-05T09:04:49.056Z,85.74
2022-11-05T09:05:49.466Z,85.87
2022-11-05T09:06:49.675Z,85.77
2022-11-05T09:07:50.081Z,85.78
2022-11-05T09:08:50.430Z,86.09
2022-11-05T09:09:50.811Z,85.81
2022-11-05T09:10:51.025Z,85.94
2022-11-05T09:12:11.094Z,86.01
2022-11-05T09:12:53.801Z,85.81
2022-11-05T09:13:54.017Z,86.12
2022-11-05T09:14:54.346Z,85.93
2022-11-05T09:15:54.657Z,85.98
2022-11-05T09:16:54.868Z,86.29
2022-11-05T09:17:55.477Z,86.09
2022-11-05T09:18:55.686Z,85.89
2022-11-05T09:19:56.099Z,85.58
2022-11-05T09:20:56.327Z,85.54
2022-11-05T09:21:56.427Z,85.23
2022-11-05T09:22:57.151Z,84.53
2022-11-05T09:23:57.457Z,84.86
2022-11-05T09:24:57.579Z,84.43
2022-11-05T09:25:58.095Z,84.54
2022-11-05T09:26:58.296Z,84.38
2022-11-05T09:29:02.519Z,84.93
2022-11-05T09:30:02.617Z,85
2022-11-05T09:31:10.316Z,84.85
2022-11-05T09:32:08.576Z,85.24
2022-11-05T09:33:08.788Z,84.82
2022-11-05T09:34:08.797Z,85.26
2022-11-05T09:35:09.921Z,85.24
2022-11-05T09:36:09.516Z,85.04
2022-11-05T09:37:09.538Z,84.89
2022-11-05T09:38:10.268Z,84.82
2022-11-05T09:39:10.280Z,84.99
2022-11-05T09:40:17.124Z,84.82
2022-11-05T09:42:19.078Z,85.27
2022-11-05T09:45:27.301Z,85.11
2022-11-05T09:46:26.793Z,85.07
2022-11-05T09:48:31.108Z,85.12
2022-11-05T09:50:35.725Z,85.24
2022-11-05T09:51:34.297Z,85.47
2022-11-05T09:52:34.713Z,85.36
2022-11-05T09:53:38.616Z,85.55
2022-11-05T09:54:37.489Z,85.46
2022-11-05T09:56:41.898Z,85.29
2022-11-05T09:59:47.575Z,85.52
2022-11-05T10:00:47.105Z,85.53
2022-11-05T10:01:46.082Z,85.52
2022-11-05T10:03:51.637Z,85.69
2022-11-05T10:04:54.508Z,85.77
2022-11-05T10:05:53.957Z,85.87
2022-11-05T10:10:04.534Z,85.66
2022-11-05T10:17:26.989Z,85.19
2022-11-05T10:21:59.684Z,85.04
2022-11-05T10:22:33.880Z,85.32
2022-11-05T10:23:34.617Z,84.75
2022-11-05T10:24:34.506Z,84.55
2022-11-05T10:26:36.571Z,84.64
2022-11-05T10:27:38.419Z,84.84
2022-11-05T10:28:37.112Z,85
2022-11-05T10:29:37.817Z,84.75
2022-11-05T10:30:38.345Z,84.59
2022-11-05T10:31:38.453Z,85.24
2022-11-05T10:32:41.032Z,85.08
2022-11-05T10:34:42.865Z,84.84
2022-11-05T10:35:49.463Z,84.38
2022-11-05T10:36:41.866Z,84.64
2022-11-05T10:37:42.490Z,84.87
2022-11-05T10:38:42.814Z,84.5
2022-11-05T10:39:43.006Z,84.35
2022-11-05T10:51:12.976Z,84.06
2022-11-05T10:54:22.831Z,83.75
2022-11-05T10:55:27.747Z,83.66
2022-11-05T10:58:34.234Z,84.25
2022-11-05T10:59:31.984Z,84.04
2022-11-05T11:00:32.498Z,83.68
2022-11-05T11:01:33.373Z,83.66
2022-11-05T11:02:35.966Z,83.84
2022-11-05T11:04:38.121Z,84.15
2022-11-05T11:05:40.509Z,84.46
2022-11-05T11:06:43.499Z,84.6
2022-11-05T11:07:41.393Z,83.78
2022-11-05T11:08:45.463Z,84.04
2022-11-05T11:09:49.147Z,84.01
2022-11-05T11:12:55.309Z,83.96
2022-11-05T11:15:05.046Z,83.97
2022-11-05T11:22:16.866Z,83.72
2022-11-05T11:23:16.156Z,83.85
2022-11-05T11:26:25.508Z,83.52
2022-11-05T11:29:32.709Z,83.37
2022-11-05T11:30:31.987Z,83.41
2022-11-05T11:31:33.533Z,83.65
2022-11-05T11:33:36.911Z,83.62
2022-11-05T11:34:37.638Z,83.6
2022-11-05T11:35:38.259Z,83.5
2022-11-05T11:37:40.317Z,83.29
2022-11-05T11:38:40.224Z,83.16
2022-11-05T11:39:39.714Z,83.78
2022-11-05T11:40:39.320Z,83.93
2022-11-05T11:41:44.950Z,83.99
2022-11-05T11:42:47.620Z,83.52
2022-11-05T11:43:45.897Z,83.8
2022-11-05T11:44:47.644Z,83.81
2022-11-05T11:45:54.099Z,83.86
2022-11-05T11:46:50.208Z,83.86
2022-11-05T11:47:49.595Z,83.79
2022-11-05T11:48:49.407Z,83.66
2022-11-05T11:49:52.373Z,83.79
2022-11-05T11:50:50.052Z,84.09
2022-11-05T11:52:52.907Z,83.97
2022-11-05T11:53:57.645Z,84
2022-11-05T11:56:56.113Z,83.62
2022-11-05T11:59:02.880Z,83.88
2022-11-05T12:00:09.259Z,83.76
2022-11-05T12:09:32.133Z,83.67
2022-11-05T12:56:17.017Z,82.75
2022-11-05T12:57:12.901Z,82.96
2022-11-05T12:59:28.668Z,82.71
2022-11-05T13:00:22.044Z,82.69
2022-11-05T13:05:44.283Z,83.1
2022-11-05T13:06:45.301Z,82.92
2022-11-05T13:07:42.049Z,82.98
2022-11-05T13:09:50.349Z,83.27
2022-11-05T13:11:01.511Z,83.19
2022-11-05T13:11:56.206Z,83.5
2022-11-05T13:13:02.967Z,83.14
2022-11-05T13:17:07.288Z,83.6
2022-11-05T13:18:03.108Z,83.47
2022-11-05T13:30:34.517Z,84.13
2022-11-05T13:32:44.158Z,84.25
2022-11-05T13:33:48.044Z,84.22
2022-11-05T13:34:45.486Z,84.31
2022-11-05T13:35:54.828Z,84.19
2022-11-05T14:02:04.750Z,84.99
2022-11-05T14:04:04.559Z,84.89
2022-11-05T14:05:07.314Z,84.9
2022-11-05T14:06:09.044Z,84.8
2022-11-05T14:07:15.820Z,84.64
2022-11-05T14:08:16.435Z,84.75
2022-11-05T14:09:11.724Z,84.89
2022-11-05T14:16:27.857Z,84.8
2022-11-05T14:22:41.929Z,85.35
2022-11-05T14:23:48.698Z,85.28
2022-11-05T14:24:42.342Z,85.23
2022-11-05T14:26:43.898Z,85.08
2022-11-05T14:29:51.386Z,85.12
2022-11-05T14:30:51.795Z,85.09
2022-11-05T14:41:18.388Z,85.02
2022-11-05T14:43:24.800Z,85
2022-11-05T14:44:24.050Z,84.85
2022-11-05T14:46:24.556Z,85.13
2022-11-05T14:52:40.589Z,84.79
2022-11-05T14:53:40.798Z,84.97
2022-11-05T14:55:43.268Z,84.86
2022-11-05T14:56:55.868Z,84.9
2022-11-05T14:58:47.369Z,84.83
2022-11-05T15:00:49.034Z,84.76
2022-11-05T15:01:56.528Z,84.71
2022-11-05T15:10:12.591Z,84.41
2022-11-05T15:18:40.048Z,84.5
2022-11-05T15:19:35.647Z,84.59
2022-11-05T15:21:38.106Z,84.87
2022-11-05T15:22:43.134Z,84.71
2022-11-05T15:23:43.781Z,84.92
2022-11-05T15:24:42.738Z,84.93
2022-11-05T15:29:48.087Z,84.93
2022-11-05T15:31:50.356Z,85.03
2022-11-05T15:32:49.857Z,85.18
2022-11-05T15:33:49.654Z,85.15
2022-11-05T15:34:54.887Z,85.17
2022-11-05T15:35:52.665Z,85.22
2022-11-05T15:36:58.689Z,84.89
2022-11-05T15:38:02.065Z,84.98
2022-11-05T15:39:28.523Z,85.18
2022-11-05T15:40:02.504Z,85.11
2022-11-05T15:43:11.522Z,85.35
2022-11-05T15:45:20.551Z,85.06
2022-11-05T15:46:21.683Z,85.15
2022-11-05T15:49:17.190Z,85.16
2022-11-05T15:50:17.103Z,85.14
2022-11-05T15:51:18.745Z,85.01
2022-11-05T15:52:20.287Z,85.15
2022-11-05T15:54:30.399Z,84.92
2022-11-05T15:55:25.437Z,85.24
2022-11-05T15:56:32.397Z,85.33
2022-11-05T15:57:28.616Z,84.99
2022-11-05T15:58:27.401Z,84.94
2022-11-05T15:59:29.138Z,84.88
2022-11-05T16:00:29.660Z,84.69
2022-11-05T16:01:31.544Z,84.89
2022-11-05T16:02:35.797Z,84.82
2022-11-05T16:03:38.699Z,84.83
2022-11-05T16:04:36.339Z,85
2022-11-05T16:05:43.423Z,85.12
2022-11-05T16:06:42.909Z,85.02
2022-11-05T16:07:46.294Z,85.2
2022-11-05T16:08:49.480Z,84.98
2022-11-05T16:10:50.823Z,84.9
2022-11-05T16:11:48.794Z,84.93
2022-11-05T16:12:49.389Z,84.98
2022-11-05T16:13:49.817Z,84.87
2022-11-05T16:16:55.367Z,84.6
2022-11-05T16:17:58.039Z,84.88
2022-11-05T16:18:56.206Z,84.91
2022-11-05T16:19:56.798Z,84.84
2022-11-05T16:21:56.723Z,84.85
2022-11-05T16:23:00.835Z,84.8
2022-11-05T16:23:59.518Z,84.85
2022-11-05T16:24:58.790Z,84.73
2022-11-05T16:25:59.223Z,84.98
2022-11-05T16:27:03.249Z,84.84
2022-11-05T16:28:02.209Z,84.71
2022-11-05T16:30:06.715Z,84.77
2022-11-05T16:31:06.131Z,84.78
2022-11-05T16:33:08.177Z,84.71
2022-11-05T16:34:06.956Z,84.77
2022-11-05T16:36:09.626Z,84.6
2022-11-05T16:37:13.837Z,84.32
2022-11-05T16:38:13.618Z,84.44
2022-11-05T16:39:11.597Z,84.64
2022-11-05T16:40:19.077Z,84.62
2022-11-05T16:41:19.510Z,84.43
2022-11-05T16:43:23.392Z,84.76
2022-11-05T16:44:21.357Z,84.58
2022-11-05T16:45:23.713Z,84.35
2022-11-05T16:46:22.599Z,84.31
2022-11-05T16:47:22.806Z,84.54
2022-11-05T16:48:22.296Z,84.31
2022-11-05T16:49:22.817Z,84.33
2022-11-05T16:50:30.186Z,84.44
2022-11-05T16:51:28.451Z,84.54
2022-11-05T16:52:28.478Z,84.4
2022-11-05T16:53:28.897Z,84.63
2022-11-05T16:54:28.585Z,84.52
2022-11-05T16:55:30.733Z,84.56
2022-11-05T16:56:29.412Z,84.71
2022-11-05T16:57:31.772Z,84.52
2022-11-05T16:58:30.474Z,84.47
2022-11-05T16:59:30.367Z,84.5
2022-11-05T17:00:30.976Z,84.51
2022-11-05T17:01:32.132Z,84.48
2022-11-05T17:02:31.317Z,84.41
2022-11-05T17:03:32.026Z,84.18
2022-11-05T17:04:32.239Z,84.34
2022-11-05T17:05:32.965Z,83.99
2022-11-05T17:06:32.765Z,84.15
2022-11-05T17:07:35.849Z,84.27
2022-11-05T17:08:37.884Z,84.26
2022-11-05T17:09:37.979Z,84.33
2022-11-05T17:10:38.825Z,84.31
2022-11-05T17:11:38.635Z,84.06
2022-11-05T17:12:39.253Z,84.24
2022-11-05T17:13:39.563Z,84.24
2022-11-05T17:14:40.107Z,84.18
2022-11-05T17:15:40.202Z,84.39
2022-11-05T17:16:41.421Z,84.4
2022-11-05T17:17:40.812Z,84.46
2022-11-05T17:18:42.461Z,84.5
2022-11-05T17:19:46.764Z,84.48
2022-11-05T17:20:49.336Z,84.6
2022-11-05T17:21:46.774Z,84.38
2022-11-05T17:22:47.213Z,84.31
2022-11-05T17:23:47.623Z,84.31
2022-11-05T17:24:47.833Z,84.28
2022-11-05T17:25:50.697Z,84.19
2022-11-05T17:26:48.461Z,84.12
2022-11-05T17:27:49.070Z,84.35
2022-11-05T17:28:49.283Z,84.26
2022-11-05T17:29:49.539Z,84.35
2022-11-05T17:30:52.704Z,84.47
2022-11-05T17:31:50.839Z,84.3
2022-11-05T17:32:51.140Z,84.36
2022-11-05T17:33:56.291Z,84.25
2022-11-05T17:34:53.742Z,84.58
2022-11-05T17:35:54.565Z,84.21
2022-11-05T17:36:54.569Z,84.26
2022-11-05T17:37:54.895Z,84.27
2022-11-05T17:38:55.189Z,84.1
2022-11-05T17:39:55.452Z,84.12
2022-11-05T17:40:56.025Z,83.78
2022-11-05T17:41:56.134Z,83.89
2022-11-05T17:42:56.750Z,84.05
2022-11-05T17:43:57.676Z,84.16
2022-11-05T17:44:57.499Z,84.01
2022-11-05T17:46:03.100Z,84.1
2022-11-05T17:47:01.701Z,84.02
2022-11-05T17:48:02.000Z,84.12
2022-11-05T17:49:02.415Z,84.1
2022-11-05T17:50:02.730Z,84.06
2022-11-05T17:51:04.382Z,84.24
2022-11-05T17:52:03.798Z,84.21
2022-11-05T17:53:03.779Z,84.17
2022-11-05T17:54:04.420Z,84.04
2022-11-05T17:55:08.410Z,84.21
2022-11-05T17:56:15.882Z,84.24
2022-11-05T17:57:10.771Z,84.16
2022-11-05T17:58:12.012Z,84.41
2022-11-05T17:59:11.602Z,84.36
2022-11-05T18:00:13.244Z,84.31
2022-11-05T18:02:13.338Z,84.29
2022-11-05T18:03:14.786Z,84.4
2022-11-05T18:04:13.930Z,84.47
2022-11-05T18:05:14.919Z,84.91
2022-11-05T18:06:14.714Z,84.71
2022-11-05T18:07:14.721Z,84.88
2022-11-05T18:08:15.157Z,84.73
2022-11-05T18:09:15.670Z,84.7
2022-11-05T18:10:18.638Z,84.38
2022-11-05T18:11:16.290Z,84.73
2022-11-05T18:12:16.510Z,84.85
2022-11-05T18:13:18.153Z,84.6
2022-11-05T18:14:22.809Z,84.49
2022-11-05T18:15:21.541Z,84.38
2022-11-05T18:16:21.737Z,84.59
2022-11-05T18:17:22.268Z,84.7
2022-11-05T18:18:22.709Z,84.26
2022-11-05T18:19:22.783Z,84.27
2022-11-05T18:20:23.617Z,84.16
2022-11-05T18:21:23.832Z,84.28
2022-11-05T18:22:24.150Z,84.35
2022-11-05T18:23:24.260Z,84.43
2022-11-05T18:24:24.665Z,84.29
2022-11-05T18:25:25.485Z,84.37
2022-11-05T18:26:25.193Z,84.6
2022-11-05T18:27:25.707Z,84.36
2022-11-05T18:28:26.028Z,84.19
2022-11-05T18:29:26.358Z,84.25
2022-11-05T18:30:26.551Z,84.13
2022-11-05T18:31:27.505Z,84.15
2022-11-05T18:32:27.379Z,84.36
2022-11-05T18:33:28.111Z,84.41
2022-11-05T18:34:27.910Z,84.18
2022-11-05T18:35:28.429Z,84.3
2022-11-05T18:36:31.196Z,84.42
2022-11-05T18:37:29.071Z,84.22
2022-11-05T18:38:29.471Z,84.09
2022-11-05T18:39:29.989Z,84.23
2022-11-05T18:40:30.097Z,84.33
2022-11-05T18:41:30.625Z,84.33
2022-11-05T18:42:30.829Z,84.14
2022-11-05T18:43:31.349Z,84.15
2022-11-05T18:44:36.305Z,84.17